LBWN - VARNA

Compiled: 21:30:49 on 19/01/2018

Latest METAR/SPECI Reports

METAR LBWN 192100Z 09003KT CAVOK 03/M03 Q1012 NOSIG=

Previous reports

METAR LBWN 192030Z 36006KT CAVOK 03/M03 Q1012 NOSIG=
METAR LBWN 192000Z 01006KT CAVOK 03/M03 Q1012 NOSIG=
METAR LBWN 191930Z 36005KT CAVOK 04/M03 Q1013 NOSIG=
METAR LBWN 191900Z 36004KT CAVOK 04/M03 Q1013 NOSIG=

Latest TAF report

TAF LBWN 191700Z 1918/2018 VRB04KT CAVOK TEMPO 2000/2006 4000 BR BECMG 2009/2011 30012KT TEMPO 2012/2018 4000 RA BKN012 OVC030=

Valid WARNINGS

No valid warnings for LBWN